Arlington, Texas
Current Conditions -  °F | °C
As of 2:50 PM on Thursday 27 Nov 2014 (Local Time) from KGPM Reporting Station
Clear Clear  
Wind Chill: 14°   Ceiling: Unl
Heat Index: 14°   Visibility: 10mi
Dew Point: -4°   Wind: 0mph
Humidity: 29%   Direction: NA
Pressure: 30.45"   Gusts: NA
Location:  32.74°N, 97.11°W
Report Text: KGPM 272050Z 00000KT 10SM SKC 14/M04 A3045
Loading
Personal Weather Stations






























Interactive Weather Map New forecast layout! Learn more

10-Day Weather Forecast

Advertisements
Track Severe Weather on mobile